createdAt,value
2019-04-10T00:01:34.033Z,48.30
2019-04-10T00:05:41.031Z,48.30
2019-04-10T00:09:46.008Z,50.58
2019-04-10T00:13:51.210Z,52.35
2019-04-10T00:17:55.970Z,53.30
2019-04-10T00:22:02.676Z,52.45
2019-04-10T00:26:07.729Z,46.50
2019-04-10T00:30:14.116Z,50.12
2019-04-10T00:34:19.133Z,47.78
2019-04-10T00:38:24.116Z,46.83
2019-04-10T00:42:29.499Z,43.60
2019-04-10T00:46:34.717Z,46.28
2019-04-10T00:50:39.625Z,41.70
2019-04-10T00:54:44.598Z,44.33
2019-04-10T00:58:49.593Z,47.75
2019-04-10T01:02:54.408Z,44.65
2019-04-10T01:07:00.153Z,43.38
2019-04-10T01:11:05.243Z,39.08
2019-04-10T01:15:10.427Z,41.20
2019-04-10T01:19:15.557Z,42.70
2019-04-10T01:23:20.551Z,42.17
2019-04-10T01:27:25.621Z,43.42
2019-04-10T01:31:31.012Z,43.83
2019-04-10T01:35:36.253Z,38.17
2019-04-10T01:39:42.271Z,33.25
2019-04-10T01:43:47.270Z,31.60
2019-04-10T01:47:53.203Z,31.75
2019-04-10T01:51:59.406Z,27.90
2019-04-10T01:56:05.276Z,32.67
2019-04-10T02:00:15.319Z,32.63
2019-04-10T02:04:20.392Z,30.80
2019-04-10T02:08:25.742Z,30.55
2019-04-10T02:12:31.232Z,29.12
2019-04-10T02:16:36.119Z,25.60
2019-04-10T02:20:41.044Z,29.20
2019-04-10T02:24:47.222Z,35.30
2019-04-10T02:28:53.389Z,34.15
2019-04-10T02:32:59.807Z,31.35
2019-04-10T02:37:04.979Z,33.60
2019-04-10T02:41:11.796Z,36.33
2019-04-10T02:45:18.589Z,37.50
2019-04-10T02:49:24.719Z,31.15
2019-04-10T02:53:31.556Z,32.42
2019-04-10T02:57:38.554Z,30.32
2019-04-10T03:01:44.040Z,31.75
2019-04-10T03:05:51.014Z,37.38
2019-04-10T03:10:10.283Z,31.25
2019-04-10T03:14:04.329Z,32.98
2019-04-10T03:18:09.797Z,38.23
2019-04-10T03:22:14.733Z,34.55
2019-04-10T03:26:19.627Z,35.50
2019-04-10T03:30:24.763Z,29.27
2019-04-10T03:34:33.435Z,29.72
2019-04-10T03:38:49.917Z,29.37
2019-04-10T03:42:44.187Z,29.42
2019-04-10T03:46:49.133Z,31.05
2019-04-10T03:50:54.242Z,29.07
2019-04-10T03:54:59.307Z,29.92
2019-04-10T03:59:04.213Z,31.45
2019-04-10T04:03:09.252Z,41.37
2019-04-10T04:07:14.166Z,54.60
2019-04-10T04:11:19.700Z,61.68
2019-04-10T04:15:24.757Z,59.35
2019-04-10T04:19:30.969Z,60.20
2019-04-10T04:23:36.307Z,65.52
2019-04-10T04:27:42.022Z,60.80
2019-04-10T04:31:48.505Z,59.40
2019-04-10T04:35:53.592Z,56.70
2019-04-10T04:39:59.203Z,59.85
2019-04-10T04:44:06.016Z,60.83
2019-04-10T04:48:11.165Z,63.17
2019-04-10T04:52:16.319Z,61.05
2019-04-10T04:56:21.962Z,58.73
2019-04-10T05:00:27.826Z,60.80
2019-04-10T05:04:46.466Z,63.33
2019-04-10T05:08:52.711Z,59.75
2019-04-10T05:12:57.825Z,63.85
2019-04-10T05:17:03.837Z,62.95
2019-04-10T05:21:12.500Z,61.98
2019-04-10T05:25:18.797Z,58.80
2019-04-10T05:29:25.066Z,63.10
2019-04-10T05:33:31.397Z,59.67
2019-04-10T05:37:36.299Z,58.13
2019-04-10T05:41:41.934Z,60.25
2019-04-10T05:45:47.104Z,56.00
2019-04-10T05:49:51.946Z,59.60
2019-04-10T05:53:58.035Z,55.73
2019-04-10T05:58:03.564Z,62.08
2019-04-10T06:02:09.417Z,55.75
2019-04-10T06:06:14.573Z,55.08
2019-04-10T06:10:19.744Z,53.15
2019-04-10T06:14:24.731Z,56.63
2019-04-10T06:18:29.556Z,55.40
2019-04-10T06:22:34.753Z,58.42
2019-04-10T06:26:39.914Z,55.23
2019-04-10T06:30:44.879Z,57.00
2019-04-10T06:34:50.204Z,55.17
2019-04-10T06:38:55.404Z,59.08
2019-04-10T06:43:01.057Z,54.30
2019-04-10T06:47:06.430Z,55.90
2019-04-10T06:51:12.789Z,54.85
2019-04-10T06:55:18.587Z,57.23
2019-04-10T06:59:23.769Z,55.23
2019-04-10T07:03:44.758Z,52.05
2019-04-10T07:07:45.463Z,49.08
2019-04-10T07:11:42.882Z,52.20
2019-04-10T07:15:49.665Z,49.35
2019-04-10T07:19:55.610Z,59.60
2019-04-10T07:24:05.049Z,56.15
2019-04-10T07:28:09.477Z,61.33
2019-04-10T07:32:14.987Z,58.38
2019-04-10T07:36:21.052Z,56.83
2019-04-10T07:40:26.006Z,54.03
2019-04-10T07:44:30.890Z,62.03
2019-04-10T07:48:38.140Z,54.90
2019-04-10T07:52:43.730Z,55.17
2019-04-10T07:56:49.433Z,54.90
2019-04-10T08:00:54.618Z,52.00
2019-04-10T08:05:00.116Z,54.05
2019-04-10T08:09:08.378Z,57.90
2019-04-10T08:13:57.567Z,51.60
2019-04-10T08:18:02.874Z,54.40
2019-04-10T08:22:10.185Z,54.50
2019-04-10T08:26:16.229Z,57.40
2019-04-10T08:30:21.344Z,57.33
2019-04-10T08:34:26.183Z,56.53
2019-04-10T08:38:32.301Z,55.95
2019-04-10T08:42:37.412Z,61.70
2019-04-10T08:46:42.343Z,61.73
2019-04-10T08:50:47.264Z,65.10
2019-04-10T08:54:53.232Z,64.22
2019-04-10T08:58:59.231Z,65.97
2019-04-10T09:03:04.527Z,62.73
2019-04-10T09:07:09.286Z,67.37
2019-04-10T09:11:14.722Z,60.28
2019-04-10T09:15:21.445Z,56.88
2019-04-10T09:19:26.364Z,58.13
2019-04-10T09:23:39.720Z,63.23
2019-04-10T09:27:37.964Z,61.73
2019-04-10T09:31:43.983Z,60.98
2019-04-10T09:35:49.195Z,60.55
2019-04-10T09:39:55.381Z,59.70
2019-04-10T09:44:00.674Z,62.48
2019-04-10T09:48:06.438Z,64.95
2019-04-10T09:52:12.399Z,57.15
2019-04-10T09:56:17.691Z,64.42
2019-04-10T10:00:23.384Z,61.70
2019-04-10T10:04:29.202Z,62.25
2019-04-10T10:08:34.400Z,66.62
2019-04-10T10:12:39.320Z,66.28
2019-04-10T10:16:44.285Z,60.17
2019-04-10T10:20:50.149Z,63.63
2019-04-10T10:24:56.256Z,62.38
2019-04-10T10:29:02.703Z,62.13
2019-04-10T10:33:09.736Z,59.63
2019-04-10T10:37:14.993Z,62.62
2019-04-10T10:41:20.289Z,59.73
2019-04-10T10:45:26.998Z,64.30
2019-04-10T10:49:32.695Z,64.32
2019-04-10T10:53:38.593Z,64.70
2019-04-10T10:57:43.673Z,62.95
2019-04-10T11:01:48.672Z,64.15
2019-04-10T11:05:54.806Z,62.90
2019-04-10T11:10:01.173Z,70.05
2019-04-10T11:14:07.388Z,63.23
2019-04-10T11:18:13.846Z,64.40
2019-04-10T11:22:22.598Z,62.88
2019-04-10T11:26:27.627Z,64.60
2019-04-10T11:30:32.617Z,66.50
2019-04-10T11:34:38.225Z,63.90
2019-04-10T11:38:45.377Z,64.72
2019-04-10T11:42:51.533Z,72.67
2019-04-10T11:46:57.230Z,69.75
2019-04-10T11:51:03.361Z,72.08
2019-04-10T11:55:15.926Z,64.25
2019-04-10T11:59:21.426Z,66.60
2019-04-10T12:03:24.657Z,72.32
2019-04-10T12:08:06.051Z,63.10
2019-04-10T12:11:37.254Z,66.35
2019-04-10T12:15:43.044Z,63.52
2019-04-10T12:19:48.731Z,61.18
2019-04-10T12:23:54.087Z,61.23
2019-04-10T12:27:59.036Z,66.95
2019-04-10T12:32:04.184Z,62.70
2019-04-10T12:36:12.042Z,60.10
2019-04-10T12:40:17.508Z,62.98
2019-04-10T12:44:23.367Z,56.50
2019-04-10T12:48:28.581Z,60.00
2019-04-10T12:52:34.778Z,63.05
2019-04-10T12:56:40.175Z,55.40
2019-04-10T13:00:45.175Z,54.20
2019-04-10T13:04:50.642Z,60.17
2019-04-10T13:09:05.763Z,61.10
2019-04-10T13:13:04.037Z,61.63
2019-04-10T13:17:09.243Z,58.52
2019-04-10T13:21:14.736Z,60.60
2019-04-10T13:25:21.856Z,62.43
2019-04-10T13:29:27.978Z,61.02
2019-04-10T13:33:33.466Z,61.45
2019-04-10T13:37:38.367Z,64.82
2019-04-10T13:41:44.911Z,59.13
2019-04-10T13:45:50.167Z,61.08
2019-04-10T13:49:55.100Z,66.45
2019-04-10T13:54:00.089Z,66.95
2019-04-10T13:58:05.256Z,65.60
2019-04-10T14:02:15.350Z,56.25
2019-04-10T14:06:21.237Z,59.85
2019-04-10T14:10:27.947Z,56.53
2019-04-10T14:14:32.949Z,63.78
2019-04-10T14:18:38.977Z,63.17
2019-04-10T14:22:58.105Z,63.20
2019-04-10T14:27:16.399Z,66.62
2019-04-10T14:31:26.756Z,65.28
2019-04-10T14:35:31.591Z,62.20
2019-04-10T14:39:37.544Z,70.12
2019-04-10T14:43:44.225Z,65.35
2019-04-10T14:47:49.856Z,69.35
2019-04-10T14:51:54.816Z,63.98
2019-04-10T14:55:59.889Z,63.58
2019-04-10T15:00:07.210Z,65.35
2019-04-10T15:04:14.973Z,59.25
2019-04-10T15:08:20.230Z,64.50
2019-04-10T15:12:25.187Z,62.30
2019-04-10T15:16:31.290Z,64.67
2019-04-10T15:20:37.541Z,65.15
2019-04-10T15:24:44.725Z,67.08
2019-04-10T15:28:49.976Z,69.25
2019-04-10T15:32:56.033Z,66.30
2019-04-10T15:37:01.125Z,62.80
2019-04-10T15:41:06.836Z,68.70
2019-04-10T15:45:12.848Z,71.10
2019-04-10T15:49:18.098Z,71.82
2019-04-10T15:53:24.323Z,68.25
2019-04-10T15:57:42.558Z,69.37
2019-04-10T16:01:37.247Z,69.37
2019-04-10T16:05:42.358Z,68.65
2019-04-10T16:09:51.988Z,71.12
2019-04-10T16:13:57.184Z,71.28
2019-04-10T16:18:38.800Z,72.62
2019-04-10T16:22:47.296Z,71.80
2019-04-10T16:26:53.449Z,75.72
2019-04-10T16:30:59.280Z,70.87
2019-04-10T16:35:05.194Z,68.95
2019-04-10T16:39:13.497Z,72.20
2019-04-10T16:43:20.419Z,72.42
2019-04-10T16:47:26.043Z,76.15
2019-04-10T16:51:32.296Z,75.10
2019-04-10T16:55:37.679Z,76.80
2019-04-10T16:59:42.702Z,81.80
2019-04-10T17:03:47.600Z,82.35
2019-04-10T17:07:52.562Z,75.95
2019-04-10T17:11:58.744Z,74.97
2019-04-10T17:16:05.052Z,78.85
2019-04-10T17:20:11.918Z,85.07
2019-04-10T17:24:17.440Z,86.47
2019-04-10T17:28:23.648Z,86.28
2019-04-10T17:32:29.309Z,85.95
2019-04-10T17:36:34.801Z,80.87
2019-04-10T17:40:47.747Z,78.10
2019-04-10T17:44:47.816Z,82.67
2019-04-10T17:48:53.801Z,96.78
2019-04-10T17:52:58.997Z,92.00
2019-04-10T17:57:04.516Z,87.00
2019-04-10T18:01:12.966Z,84.55
2019-04-10T18:05:18.199Z,93.25
2019-04-10T18:09:24.888Z,90.32
2019-04-10T18:13:30.799Z,91.53
2019-04-10T18:17:35.977Z,86.67
2019-04-10T18:21:41.233Z,94.28
2019-04-10T18:25:46.480Z,86.32
2019-04-10T18:29:51.770Z,91.32
2019-04-10T18:33:56.870Z,87.30
2019-04-10T18:38:01.814Z,87.97
2019-04-10T18:42:07.627Z,89.00
2019-04-10T18:46:16.400Z,82.20
2019-04-10T18:50:20.260Z,84.60
2019-04-10T18:54:25.113Z,77.90
2019-04-10T18:58:35.808Z,91.08
2019-04-10T19:02:59.271Z,91.42
2019-04-10T19:07:07.054Z,91.78
2019-04-10T19:11:21.114Z,86.55
2019-04-10T19:15:20.307Z,86.95
2019-04-10T19:19:26.061Z,82.85
2019-04-10T19:23:31.557Z,87.50
2019-04-10T19:27:36.526Z,83.67
2019-04-10T19:31:45.991Z,88.65
2019-04-10T19:35:51.010Z,83.33
2019-04-10T19:39:56.488Z,78.90
2019-04-10T19:44:02.404Z,83.92
2019-04-10T19:48:07.369Z,83.82
2019-04-10T19:52:14.102Z,84.07
2019-04-10T19:56:20.492Z,90.28
2019-04-10T20:00:30.951Z,89.58
2019-04-10T20:04:36.847Z,86.30
2019-04-10T20:08:43.966Z,93.72
2019-04-10T20:12:49.321Z,98.47
2019-04-10T20:16:55.472Z,91.42
2019-04-10T20:21:01.804Z,93.78
2019-04-10T20:25:08.170Z,96.45
2019-04-10T20:29:13.484Z,86.87
2019-04-10T20:33:18.763Z,89.32
2019-04-10T20:37:24.840Z,88.90
2019-04-10T20:41:30.829Z,82.08
2019-04-10T20:45:36.177Z,89.67
2019-04-10T20:49:41.129Z,89.00
2019-04-10T20:53:46.330Z,96.20
2019-04-10T20:57:52.079Z,95.92
2019-04-10T21:01:57.799Z,90.85
2019-04-10T21:06:02.744Z,89.72
2019-04-10T21:10:08.633Z,87.10
2019-04-10T21:14:13.936Z,95.40
2019-04-10T21:18:19.678Z,93.25
2019-04-10T21:22:26.498Z,91.70
2019-04-10T21:26:32.465Z,96.90
2019-04-10T21:30:52.896Z,95.67
2019-04-10T21:34:57.943Z,89.13
2019-04-10T21:39:03.228Z,95.53
2019-04-10T21:43:10.111Z,93.65
2019-04-10T21:47:15.168Z,96.78
2019-04-10T21:51:20.141Z,93.05
2019-04-10T21:55:25.065Z,98.70
2019-04-10T21:59:30.961Z,94.05
2019-04-10T22:03:35.989Z,94.32
2019-04-10T22:07:59.067Z,92.25
2019-04-10T22:12:22.189Z,100.15
2019-04-10T22:16:18.242Z,97.00
2019-04-10T22:20:23.571Z,97.42
2019-04-10T22:24:29.890Z,100.20
2019-04-10T22:28:35.068Z,96.67
2019-04-10T22:32:40.954Z,93.37
2019-04-10T22:36:47.079Z,98.47
2019-04-10T22:40:53.876Z,96.75
2019-04-10T22:44:58.902Z,97.92
2019-04-10T22:49:04.203Z,100.00
2019-04-10T22:53:09.984Z,91.72
2019-04-10T22:57:14.949Z,95.92
2019-04-10T23:01:20.730Z,92.70
2019-04-10T23:05:26.799Z,94.00
2019-04-10T23:09:32.652Z,92.72
2019-04-10T23:13:38.283Z,99.40
2019-04-10T23:17:43.519Z,103.50
2019-04-10T23:21:49.162Z,96.75
2019-04-10T23:25:54.601Z,97.55
2019-04-10T23:30:00.290Z,95.67
2019-04-10T23:34:06.302Z,94.90
2019-04-10T23:38:11.310Z,89.55
2019-04-10T23:42:16.363Z,83.78
2019-04-10T23:46:22.225Z,95.67
2019-04-10T23:50:27.326Z,89.62
2019-04-10T23:54:33.321Z,88.70
2019-04-10T23:58:38.428Z,90.12
